createdAt,value
2023-04-28T00:01:41.962Z,20.37
2023-04-28T00:04:09.219Z,19.83
2023-04-28T00:06:37.181Z,20.47
2023-04-28T00:09:04.105Z,19.93
2023-04-28T00:11:30.934Z,18.23
2023-04-28T00:13:57.777Z,19.50
2023-04-28T00:16:24.682Z,20.60
2023-04-28T00:18:52.066Z,22.23
2023-04-28T00:21:18.910Z,19.77
2023-04-28T00:23:45.910Z,22.40
2023-04-28T00:26:12.829Z,19.20
2023-04-28T00:28:39.892Z,23.50
2023-04-28T00:31:14.529Z,20.83
2023-04-28T00:33:42.607Z,21.20
2023-04-28T00:36:10.480Z,20.60
2023-04-28T00:38:37.571Z,22.10
2023-04-28T00:41:04.661Z,23.40
2023-04-28T00:43:31.646Z,19.63
2023-04-28T00:45:58.546Z,21.67
2023-04-28T00:48:25.510Z,19.67
2023-04-28T00:50:52.357Z,23.47
2023-04-28T00:53:19.299Z,20.20
2023-04-28T00:55:48.100Z,25.50
2023-04-28T00:58:15.067Z,21.90
2023-04-28T01:00:41.948Z,20.63
2023-04-28T01:03:09.309Z,21.70
2023-04-28T01:05:37.199Z,21.17
2023-04-28T01:08:04.806Z,19.47
2023-04-28T01:10:31.598Z,19.23
2023-04-28T01:12:58.497Z,20.93
2023-04-28T01:15:26.134Z,20.77
2023-04-28T01:17:54.145Z,20.40
2023-04-28T01:20:24.008Z,23.60
2023-04-28T01:22:50.795Z,20.80
2023-04-28T01:25:17.742Z,22.70
2023-04-28T01:27:44.507Z,25.37
2023-04-28T01:30:11.628Z,20.07
2023-04-28T01:32:38.464Z,22.53
2023-04-28T01:35:05.652Z,23.10
2023-04-28T01:37:32.419Z,22.20
2023-04-28T01:39:59.201Z,21.17
2023-04-28T01:42:26.045Z,21.57
2023-04-28T01:44:53.053Z,23.77
2023-04-28T01:47:20.491Z,24.13
2023-04-28T01:49:48.321Z,22.83
2023-04-28T01:52:15.279Z,22.40
2023-04-28T01:54:42.064Z,21.67
2023-04-28T01:57:08.865Z,18.53
2023-04-28T01:59:35.825Z,21.50
2023-04-28T02:02:02.716Z,23.00
2023-04-28T02:04:29.727Z,19.07
2023-04-28T02:06:56.521Z,19.40
2023-04-28T02:09:23.337Z,21.10
2023-04-28T02:11:50.410Z,20.73
2023-04-28T02:14:17.736Z,21.13
2023-04-28T02:16:44.826Z,20.37
2023-04-28T02:19:11.604Z,21.87
2023-04-28T02:21:38.445Z,21.30
2023-04-28T02:24:05.624Z,22.77
2023-04-28T02:26:33.982Z,20.83
2023-04-28T02:29:01.122Z,22.00
2023-04-28T02:31:27.964Z,23.00
2023-04-28T02:33:54.786Z,21.87
2023-04-28T02:36:21.845Z,20.37
2023-04-28T02:38:48.719Z,22.87
2023-04-28T02:41:15.657Z,21.57
2023-04-28T02:43:42.567Z,24.03
2023-04-28T02:46:09.450Z,21.30
2023-04-28T02:48:36.786Z,20.90
2023-04-28T02:51:03.856Z,21.03
2023-04-28T02:53:30.933Z,22.17
2023-04-28T02:55:58.071Z,22.17
2023-04-28T02:58:24.849Z,20.83
2023-04-28T03:00:51.676Z,21.00
2023-04-28T03:03:18.659Z,22.10
2023-04-28T03:05:46.154Z,21.13
2023-04-28T03:08:12.972Z,26.60
2023-04-28T03:10:39.750Z,23.90
2023-04-28T03:13:07.189Z,19.93
2023-04-28T03:15:34.057Z,25.23
2023-04-28T03:18:01.249Z,23.17
2023-04-28T03:20:28.205Z,20.97
2023-04-28T03:22:55.036Z,21.87
2023-04-28T03:25:21.819Z,20.67
2023-04-28T03:27:48.620Z,24.63
2023-04-28T03:30:15.598Z,24.53
2023-04-28T03:32:42.556Z,23.07
2023-04-28T03:35:09.694Z,19.37
2023-04-28T03:37:36.461Z,19.73
2023-04-28T03:40:03.441Z,20.00
2023-04-28T03:42:30.473Z,24.13
2023-04-28T03:44:57.303Z,37.17
2023-04-28T03:47:24.154Z,22.97
2023-04-28T03:49:52.148Z,22.87
2023-04-28T03:52:20.232Z,22.10
2023-04-28T03:54:47.344Z,26.60
2023-04-28T03:57:14.122Z,21.63
2023-04-28T03:59:41.050Z,21.70
2023-04-28T04:02:08.302Z,23.63
2023-04-28T04:04:35.387Z,26.60
2023-04-28T04:07:02.765Z,21.10
2023-04-28T04:09:29.829Z,26.57
2023-04-28T04:11:56.591Z,21.97
2023-04-28T04:14:23.375Z,21.90
2023-04-28T04:16:50.234Z,22.87
2023-04-28T04:19:17.179Z,22.23
2023-04-28T04:21:44.017Z,22.47
2023-04-28T04:24:10.793Z,21.23
2023-04-28T04:26:37.700Z,23.77
2023-04-28T04:29:04.563Z,24.80
2023-04-28T04:31:31.762Z,20.07
2023-04-28T04:33:59.226Z,17.80
2023-04-28T04:36:26.538Z,22.27
2023-04-28T04:38:54.531Z,20.97
2023-04-28T04:41:22.046Z,22.90
2023-04-28T04:43:49.004Z,22.03
2023-04-28T04:46:15.892Z,21.07
2023-04-28T04:48:43.302Z,27.10
2023-04-28T04:51:10.188Z,18.93
2023-04-28T04:53:37.263Z,22.13
2023-04-28T04:56:04.272Z,18.80
2023-04-28T04:58:31.298Z,20.70
2023-04-28T05:00:58.102Z,23.10
2023-04-28T05:03:25.149Z,18.67
2023-04-28T05:05:52.058Z,26.10
2023-04-28T05:08:20.345Z,20.47
2023-04-28T05:10:50.196Z,23.20
2023-04-28T05:13:17.040Z,21.83
2023-04-28T05:15:44.346Z,19.57
2023-04-28T05:18:11.553Z,24.17
2023-04-28T05:20:38.412Z,24.00
2023-04-28T05:23:06.012Z,23.20
2023-04-28T05:25:33.120Z,24.23
2023-04-28T05:28:05.431Z,20.03
2023-04-28T05:30:35.504Z,23.00
2023-04-28T05:33:02.496Z,24.23
2023-04-28T05:35:31.129Z,21.50
2023-04-28T05:37:58.974Z,21.83
2023-04-28T05:40:26.660Z,21.53
2023-04-28T05:42:53.699Z,23.37
2023-04-28T05:45:20.732Z,23.00
2023-04-28T05:47:47.766Z,27.63
2023-04-28T05:50:14.683Z,39.43
2023-04-28T05:52:41.484Z,23.67
2023-04-28T05:55:08.653Z,22.73
2023-04-28T05:57:49.194Z,23.53
2023-04-28T06:00:19.857Z,26.37
2023-04-28T06:02:46.842Z,26.97
2023-04-28T06:05:13.921Z,23.80
2023-04-28T06:07:41.009Z,27.80
2023-04-28T06:10:09.515Z,28.57
2023-04-28T06:12:37.403Z,21.50
2023-04-28T06:15:05.872Z,22.60
2023-04-28T06:17:33.571Z,28.90
2023-04-28T06:20:00.701Z,25.17
2023-04-28T06:22:27.731Z,24.00
2023-04-28T06:24:54.530Z,25.73
2023-04-28T06:27:21.358Z,20.93
2023-04-28T06:29:49.285Z,19.60
2023-04-28T06:32:16.309Z,22.70
2023-04-28T06:34:43.182Z,18.27
2023-04-28T06:37:09.995Z,18.83
2023-04-28T06:39:37.065Z,21.87
2023-04-28T06:42:04.207Z,14.50
2023-04-28T06:44:31.039Z,14.57
2023-04-28T06:46:57.882Z,14.53
2023-04-28T06:49:24.738Z,15.80
2023-04-28T06:51:52.276Z,16.00
2023-04-28T06:54:19.618Z,16.47
2023-04-28T06:56:49.202Z,25.10
2023-04-28T06:59:16.107Z,13.80
2023-04-28T07:01:42.992Z,15.77
2023-04-28T07:04:18.673Z,17.33
2023-04-28T07:06:45.840Z,17.03
2023-04-28T07:09:12.969Z,14.53
2023-04-28T07:11:43.092Z,15.07
2023-04-28T07:14:09.938Z,14.67
2023-04-28T07:16:45.975Z,12.47
2023-04-28T07:19:12.843Z,10.90
2023-04-28T07:21:39.988Z,9.37
2023-04-28T07:24:07.170Z,13.90
2023-04-28T07:26:44.217Z,7.60
2023-04-28T07:29:13.528Z,11.77
2023-04-28T07:31:40.805Z,8.70
2023-04-28T07:34:07.642Z,5.13
2023-04-28T07:36:34.829Z,7.33
2023-04-28T07:39:02.223Z,9.13
2023-04-28T07:41:29.385Z,9.67
2023-04-28T07:43:56.285Z,8.87
2023-04-28T07:46:26.392Z,10.27
2023-04-28T07:48:54.872Z,8.27
2023-04-28T07:51:21.830Z,4.10
2023-04-28T07:53:48.772Z,5.47
2023-04-28T07:56:16.272Z,5.40
2023-04-28T07:58:43.088Z,5.70
2023-04-28T08:01:09.971Z,5.90
2023-04-28T08:03:37.237Z,4.40
2023-04-28T08:06:05.461Z,3.60
2023-04-28T08:08:32.381Z,5.43
2023-04-28T08:11:00.374Z,3.87
2023-04-28T08:13:28.982Z,3.20
2023-04-28T08:15:57.021Z,8.00
2023-04-28T08:18:25.562Z,3.27
2023-04-28T08:20:53.521Z,4.33
2023-04-28T08:23:20.713Z,4.03
2023-04-28T08:25:48.122Z,6.13
2023-04-28T08:28:15.004Z,3.20
2023-04-28T08:30:41.865Z,5.50
2023-04-28T08:33:08.941Z,4.53
2023-04-28T08:35:35.880Z,4.00
2023-04-28T08:38:03.709Z,4.30
2023-04-28T08:40:31.568Z,2.93
2023-04-28T08:43:01.138Z,4.23
2023-04-28T08:45:30.631Z,4.43
2023-04-28T08:48:00.310Z,4.73
2023-04-28T08:50:31.399Z,4.70
2023-04-28T08:52:58.751Z,6.97
2023-04-28T08:55:27.268Z,4.90
2023-04-28T08:57:55.246Z,5.60
2023-04-28T09:00:22.148Z,5.10
2023-04-28T09:02:49.053Z,4.40
2023-04-28T09:05:16.344Z,4.03
2023-04-28T09:10:24.757Z,4.90
2023-04-28T09:12:53.583Z,4.80
2023-04-28T09:15:31.202Z,3.97
2023-04-28T09:17:59.711Z,5.67
2023-04-28T09:20:29.080Z,4.90
2023-04-28T09:22:57.282Z,4.67
2023-04-28T09:25:24.398Z,4.27
2023-04-28T09:27:51.282Z,3.97
2023-04-28T09:30:19.434Z,5.70
2023-04-28T09:32:46.265Z,5.00
2023-04-28T09:35:13.084Z,4.23
2023-04-28T09:37:40.278Z,4.77
2023-04-28T09:40:09.548Z,6.57
2023-04-28T09:42:41.657Z,6.73
2023-04-28T09:45:11.418Z,3.87
2023-04-28T09:47:39.956Z,7.00
2023-04-28T09:50:11.789Z,3.67
2023-04-28T09:52:39.010Z,5.87
2023-04-28T09:55:08.869Z,5.03
2023-04-28T09:57:37.550Z,3.50
2023-04-28T10:00:06.726Z,4.30
2023-04-28T10:05:12.885Z,6.70
2023-04-28T10:07:42.026Z,4.73
2023-04-28T10:10:09.669Z,5.40
2023-04-28T10:12:39.373Z,5.60
2023-04-28T10:15:09.651Z,6.13
2023-04-28T10:17:37.370Z,6.00
2023-04-28T10:20:06.494Z,6.50
2023-04-28T10:22:58.393Z,4.57
2023-04-28T10:25:26.754Z,3.67
2023-04-28T10:27:54.261Z,6.00
2023-04-28T10:30:28.665Z,4.33
2023-04-28T10:33:14.961Z,5.37
2023-04-28T10:35:48.241Z,7.07
2023-04-28T10:38:16.898Z,4.73
2023-04-28T10:40:51.583Z,5.23
2023-04-28T10:43:31.839Z,4.40
2023-04-28T10:46:02.447Z,3.73
2023-04-28T10:48:37.959Z,5.07
2023-04-28T10:51:09.627Z,4.70
2023-04-28T10:53:59.220Z,3.73
2023-04-28T10:56:27.668Z,3.87
2023-04-28T10:58:58.810Z,6.13
2023-04-28T11:01:26.632Z,4.43
2023-04-28T11:04:00.895Z,4.13
2023-04-28T11:06:31.711Z,3.67
2023-04-28T11:09:01.745Z,4.53
2023-04-28T11:11:33.058Z,3.77
2023-04-28T11:14:18.500Z,4.60
2023-04-28T11:17:03.325Z,3.43
2023-04-28T11:19:33.567Z,4.60
2023-04-28T11:22:03.689Z,6.13
2023-04-28T11:24:34.090Z,5.10
2023-04-28T11:27:10.372Z,4.53
2023-04-28T11:29:38.995Z,2.87
2023-04-28T11:32:07.331Z,3.77
2023-04-28T11:34:39.728Z,5.40
2023-04-28T11:37:08.685Z,8.37
2023-04-28T11:40:01.934Z,3.80
2023-04-28T11:42:29.442Z,5.10
2023-04-28T11:44:56.512Z,5.07
2023-04-28T11:47:31.593Z,3.53
2023-04-28T11:49:59.554Z,5.43
2023-04-28T11:52:27.470Z,5.03
2023-04-28T12:01:11.901Z,5.10
2023-04-28T12:03:48.505Z,7.25
2023-04-28T12:06:19.060Z,4.95
2023-04-28T12:08:46.360Z,6.25
2023-04-28T12:11:14.681Z,4.88
2023-04-28T12:13:41.950Z,4.63
2023-04-28T12:16:11.688Z,7.30
2023-04-28T12:18:41.131Z,6.03
2023-04-28T12:21:29.149Z,4.40
2023-04-28T12:23:57.645Z,7.03
2023-04-28T12:26:27.427Z,5.37
2023-04-28T12:28:54.386Z,5.77
2023-04-28T12:31:21.809Z,4.67
2023-04-28T12:33:48.980Z,6.13
2023-04-28T12:36:17.578Z,6.37
2023-04-28T12:38:49.575Z,5.60
2023-04-28T12:41:19.550Z,5.93
2023-04-28T12:43:46.446Z,5.53
2023-04-28T12:46:15.814Z,8.17
2023-04-28T12:48:42.709Z,5.93
2023-04-28T12:51:09.561Z,5.30
2023-04-28T12:53:36.370Z,8.30
2023-04-28T12:56:03.283Z,7.63
2023-04-28T12:58:31.556Z,6.10
2023-04-28T13:00:58.373Z,8.70
2023-04-28T13:03:25.335Z,6.90
2023-04-28T13:05:52.214Z,7.83
2023-04-28T13:08:19.112Z,7.67
2023-04-28T13:10:46.532Z,7.33
2023-04-28T13:13:13.350Z,7.30
2023-04-28T13:15:40.255Z,7.13
2023-04-28T13:18:07.308Z,5.50
2023-04-28T13:20:34.255Z,7.47
2023-04-28T13:23:01.265Z,7.60
2023-04-28T13:25:29.141Z,6.87
2023-04-28T13:27:56.059Z,8.03
2023-04-28T13:30:23.016Z,7.47
2023-04-28T13:32:50.181Z,5.37
2023-04-28T13:35:17.677Z,8.17
2023-04-28T13:37:46.427Z,6.20
2023-04-28T13:40:13.563Z,9.00
